Main page
METAR-TAF:

METAR-TAF

Airports :

Flamingo International Airport

Bonaire, Netherlands Antilles

latitude: 12-09N, longitude: 068-17W, elevation: 6 m

Current weather observation

The report was made 52 minutes ago, at 20:55 UTC
Wind 15 kt from the East, varying between East/Northeast and Southeast
Temperature 31°C
Humidity 71%
Pressure 1012 hPa
Visibility 10 km or more
Broken clouds at a height of 1900 ft

METAR: TNCB 202055Z 10015KT 070V140 9999 BKN019 31/25 Q1012

Time: 17:47 (21:47 UTC)

Forecast

The report was made 4 hours and 28 minutes ago, at 17:19 UTC
Forecast valid from 20 at 18 UTC to 21 at 24 UTC
Wind 15 kt from the East
Visibility 10 km or more
Scattered clouds at a height of 1800 ft

TAF: TNCB 201719Z 2018/2124 10015KT 9999 SCT018

Weather observations and forecasts of more than 4000 airports (METAR and TAF reports).

The available stations are represented by yellow and red dots on the map.

Hover mouse over dot to see the name of the station.

Then click to see weather observations and forecasts.

To change the map : click on the green buttons with a black cross to zoom in, on the green button with a dash to zoom out, or on the green arrows for adjacent maps.


METAR-TAF: